Time,TemperatureF,DewpointF,PressureIn,WindDirection,WindDirectionDegrees,WindSpeedMPH,WindSpeedGustMPH,Humidity,HourlyPrecipIn,Conditions,Clouds,dailyrainin,SoftwareType,DateUTC
2013-07-04 00:02:00,66.0,52.2,29.94,SSE,158,0.0,0.0,61,0.00,CLR,CLR,0.00,WeatherDisplay:10.37,2013-07-04 05:02:00,
2013-07-04 00:07:00,65.7,52.3,29.94,SSE,158,0.0,0.0,62,0.00,CLR,CLR,0.00,WeatherDisplay:10.37,2013-07-04 05:07:00,
2013-07-04 00:12:00,65.3,52.4,29.94,SSE,158,0.0,0.0,63,0.00,CLR,CLR,0.00,WeatherDisplay:10.37,2013-07-04 05:12:00,
2013-07-04 00:17:00,64.9,52.0,29.94,West,270,0.0,0.0,63,0.00,CLR,CLR,0.00,WeatherDisplay:10.37,2013-07-04 05:17:00,
2013-07-04 00:22:00,64.6,52.1,29.95,North,0,0.0,0.0,64,0.00,CLR,CLR,0.00,WeatherDisplay:10.37,2013-07-04 05:22:00,
2013-07-04 00:27:00,64.2,52.2,29.95,East,90,1.1,3.5,65,0.00,CLR,CLR,0.00,WeatherDisplay:10.37,2013-07-04 05:27:00,
2013-07-04 00:32:00,64.0,52.4,29.95,SE,135,0.2,1.2,66,0.00,CLR,CLR,0.00,WeatherDisplay:10.37,2013-07-04 05:32:00,
2013-07-04 00:38:00,64.0,52.9,29.94,ESE,112,2.9,4.6,67,0.00,CLR,CLR,0.00,WeatherDisplay:10.37,2013-07-04 05:38:00,
2013-07-04 00:43:00,63.7,52.9,29.94,ESE,112,1.5,2.3,68,0.00,CLR,CLR,0.00,WeatherDisplay:10.37,2013-07-04 05:43:00,
2013-07-04 00:48:00,63.7,53.3,29.94,SE,135,0.0,0.0,69,0.00,CLR,CLR,0.00,WeatherDisplay:10.37,2013-07-04 05:48:00,
2013-07-04 00:53:00,63.7,53.3,29.94,ESE,112,0.0,1.2,69,0.00,CLR,CLR,0.00,WeatherDisplay:10.37,2013-07-04 05:53:00,
2013-07-04 00:58:00,63.7,53.3,29.94,ESE,112,0.0,0.0,69,0.00,CLR,CLR,0.00,WeatherDisplay:10.37,2013-07-04 05:58:00,
2013-07-04 01:03:00,63.7,53.7,29.94,ESE,112,1.0,1.2,70,0.00,CLR,CLR,0.00,WeatherDisplay:10.37,2013-07-04 06:03:00,
2013-07-04 01:08:00,63.5,53.5,29.93,South,180,0.0,2.3,70,0.00,CLR,CLR,0.00,WeatherDisplay:10.37,2013-07-04 06:08:00,
2013-07-04 01:14:00,63.3,53.4,29.93,SE,135,0.1,1.2,70,0.00,CLR,CLR,0.00,WeatherDisplay:10.37,2013-07-04 06:14:00,
2013-07-04 01:19:00,63.1,53.2,29.93,SE,135,0.0,0.0,70,0.00,CLR,CLR,0.00,WeatherDisplay:10.37,2013-07-04 06:19:00,
2013-07-04 01:24:00,63.0,53.4,29.93,ESE,112,0.6,2.2,71,0.00,CLR,CLR,0.00,WeatherDisplay:10.37,2013-07-04 06:24:00,
2013-07-04 01:29:00,62.8,53.2,29.93,ESE,112,0.0,0.0,71,0.00,CLR,CLR,0.00,WeatherDisplay:10.37,2013-07-04 06:29:00,
2013-07-04 01:34:00,62.6,53.4,29.93,ESE,112,0.0,0.0,72,0.00,CLR,CLR,0.00,WeatherDisplay:10.37,2013-07-04 06:34:00,
2013-07-04 01:39:00,62.4,53.3,29.94,ESE,112,0.0,0.0,72,0.00,CLR,CLR,0.00,WeatherDisplay:10.37,2013-07-04 06:39:00,
2013-07-04 01:44:00,62.4,53.3,29.93,ESE,112,0.0,0.0,72,0.00,CLR,CLR,0.00,WeatherDisplay:10.37,2013-07-04 06:44:00,
2013-07-04 01:50:00,62.2,53.1,29.93,ESE,112,0.4,1.2,72,0.00,CLR,CLR,0.00,WeatherDisplay:10.37,2013-07-04 06:50:00,
2013-07-04 01:55:00,61.9,53.1,29.93,ESE,112,0.0,0.0,73,0.00,CLR,CLR,0.00,WeatherDisplay:10.37,2013-07-04 06:55:00,
2013-07-04 02:00:00,61.7,53.0,29.93,SSW,202,0.0,0.0,73,0.00,CLR,CLR,0.00,WeatherDisplay:10.37,2013-07-04 07:00:00,
2013-07-04 02:05:00,61.5,52.8,29.93,SE,135,0.0,0.0,73,0.00,CLR,CLR,0.00,WeatherDisplay:10.37,2013-07-04 07:05:00,
2013-07-04 02:10:00,61.3,53.0,29.93,ESE,112,0.0,0.0,74,0.00,CLR,CLR,0.00,WeatherDisplay:10.37,2013-07-04 07:10:00,
2013-07-04 02:15:00,61.0,52.6,29.93,ESE,112,0.0,1.2,74,0.00,CLR,CLR,0.00,WeatherDisplay:10.37,2013-07-04 07:15:00,
2013-07-04 02:20:00,61.0,53.0,29.92,SE,135,0.0,2.3,75,0.00,CLR,CLR,0.00,WeatherDisplay:10.37,2013-07-04 07:20:00,
2013-07-04 02:25:00,61.0,53.4,29.92,SSE,158,0.3,1.8,76,0.00,CLR,CLR,0.00,WeatherDisplay:10.37,2013-07-04 07:25:00,
2013-07-04 02:31:00,60.8,53.2,29.92,SSE,158,0.0,0.0,76,0.00,CLR,CLR,0.00,WeatherDisplay:10.37,2013-07-04 07:31:00,
2013-07-04 02:36:00,60.6,53.0,29.92,SSE,158,0.0,0.0,76,0.00,CLR,CLR,0.00,WeatherDisplay:10.37,2013-07-04 07:36:00,
2013-07-04 02:41:00,60.6,53.0,29.92,SSE,158,0.0,0.0,76,0.00,CLR,CLR,0.00,WeatherDisplay:10.37,2013-07-04 07:41:00,
2013-07-04 02:46:00,60.4,52.8,29.92,SE,135,0.0,0.0,76,0.00,CLR,CLR,0.00,WeatherDisplay:10.37,2013-07-04 07:46:00,
2013-07-04 02:52:00,60.4,52.8,29.92,East,90,0.0,0.0,76,0.00,CLR,CLR,0.00,WeatherDisplay:10.37,2013-07-04 07:52:00,
2013-07-04 02:57:00,60.1,52.8,29.93,SE,135,0.0,0.0,77,0.00,CLR,CLR,0.00,WeatherDisplay:10.37,2013-07-04 07:57:00,
2013-07-04 03:02:00,59.9,52.7,29.92,SE,135,0.4,1.2,77,0.00,CLR,CLR,0.00,WeatherDisplay:10.37,2013-07-04 08:02:00,
2013-07-04 03:07:00,59.7,52.5,29.92,SE,135,0.1,1.2,77,0.00,CLR,CLR,0.00,WeatherDisplay:10.37,2013-07-04 08:07:00,
2013-07-04 03:12:00,59.5,52.3,29.92,ESE,112,0.0,0.0,77,0.00,CLR,CLR,0.00,WeatherDisplay:10.37,2013-07-04 08:12:00,
2013-07-04 03:17:00,59.4,52.5,29.92,SE,135,0.0,0.0,78,0.00,CLR,CLR,0.00,WeatherDisplay:10.37,2013-07-04 08:17:00,
2013-07-04 03:23:00,59.2,52.3,29.92,ESE,112,0.0,0.0,78,0.00,CLR,CLR,0.00,WeatherDisplay:10.37,2013-07-04 08:23:00,
2013-07-04 03:28:00,58.8,52.3,29.92,ESE,112,0.0,0.0,79,0.00,CLR,CLR,0.00,WeatherDisplay:10.37,2013-07-04 08:28:00,
2013-07-04 03:33:00,58.8,52.3,29.92,ESE,112,0.0,0.0,79,0.00,CLR,CLR,0.00,WeatherDisplay:10.37,2013-07-04 08:33:00,
2013-07-04 03:38:00,58.6,52.1,29.92,ESE,112,0.0,0.0,79,0.00,CLR,CLR,0.00,WeatherDisplay:10.37,2013-07-04 08:38:00,
2013-07-04 03:43:00,58.3,51.8,29.92,ESE,112,0.0,0.0,79,0.00,CLR,CLR,0.00,WeatherDisplay:10.37,2013-07-04 08:43:00,
2013-07-04 03:48:00,58.3,52.1,29.92,ESE,112,0.0,0.0,80,0.00,CLR,CLR,0.00,WeatherDisplay:10.37,2013-07-04 08:48:00,
2013-07-04 03:53:00,58.3,52.5,29.92,East,90,0.0,0.0,81,0.00,CLR,CLR,0.00,WeatherDisplay:10.37,2013-07-04 08:53:00,
2013-07-04 03:59:00,58.1,52.3,29.92,ESE,112,0.0,0.0,81,0.00,CLR,CLR,0.00,WeatherDisplay:10.37,2013-07-04 08:59:00,
2013-07-04 04:04:00,57.9,52.1,29.92,ESE,112,0.0,0.0,81,0.00,CLR,CLR,0.00,WeatherDisplay:10.37,2013-07-04 09:04:00,
2013-07-04 04:09:00,57.9,52.5,29.92,ESE,112,0.0,0.0,82,0.00,CLR,CLR,0.00,WeatherDisplay:10.37,2013-07-04 09:09:00,
2013-07-04 04:14:00,57.9,52.5,29.92,ESE,112,0.0,0.0,82,0.00,CLR,CLR,0.00,WeatherDisplay:10.37,2013-07-04 09:14:00,
2013-07-04 04:19:00,57.7,52.3,29.92,SE,135,0.1,2.3,82,0.00,CLR,CLR,0.00,WeatherDisplay:10.37,2013-07-04 09:19:00,
2013-07-04 04:24:00,57.7,52.6,29.92,ESE,112,0.0,0.0,83,0.00,CLR,CLR,0.00,WeatherDisplay:10.37,2013-07-04 09:24:00,
2013-07-04 04:30:00,57.7,52.6,29.92,ESE,112,0.0,0.0,83,0.00,CLR,CLR,0.00,WeatherDisplay:10.37,2013-07-04 09:30:00,
2013-07-04 04:35:00,57.7,52.6,29.92,ESE,112,0.0,0.0,83,0.00,CLR,CLR,0.00,WeatherDisplay:10.37,2013-07-04 09:35:00,
2013-07-04 04:40:00,57.7,52.6,29.91,SE,135,0.0,0.0,83,0.00,CLR,CLR,0.00,WeatherDisplay:10.37,2013-07-04 09:40:00,
2013-07-04 04:45:00,57.6,52.4,29.91,SE,135,0.0,0.0,83,0.00,CLR,CLR,0.00,WeatherDisplay:10.37,2013-07-04 09:45:00,
2013-07-04 04:50:00,57.4,52.3,29.91,SE,135,0.0,0.0,83,0.00,CLR,CLR,0.00,WeatherDisplay:10.37,2013-07-04 09:50:00,
2013-07-04 04:55:00,57.4,52.3,29.91,NNE,22,0.0,0.0,83,0.00,CLR,CLR,0.00,WeatherDisplay:10.37,2013-07-04 09:55:00,
2013-07-04 05:00:00,57.2,52.1,29.92,NNE,22,0.0,0.0,83,0.00,CLR,CLR,0.00,WeatherDisplay:10.37,2013-07-04 10:00:00,
2013-07-04 05:05:00,57.0,51.9,29.92,NNE,22,0.0,0.0,83,0.00,CLR,CLR,0.00,WeatherDisplay:10.37,2013-07-04 10:05:00,
2013-07-04 05:10:00,57.0,51.9,29.92,ENE,68,0.0,0.0,83,0.00,CLR,CLR,0.00,WeatherDisplay:10.37,2013-07-04 10:10:00,
2013-07-04 05:16:00,57.0,52.2,29.92,ESE,112,0.0,0.0,84,0.00,CLR,CLR,0.00,WeatherDisplay:10.37,2013-07-04 10:16:00,
2013-07-04 05:21:00,57.0,52.2,29.92,NNW,338,0.0,0.0,84,0.00,CLR,CLR,0.00,WeatherDisplay:10.37,2013-07-04 10:21:00,
2013-07-04 05:26:00,57.0,52.2,29.92,ENE,68,0.0,0.0,84,0.00,CLR,CLR,0.00,WeatherDisplay:10.37,2013-07-04 10:26:00,
2013-07-04 05:31:00,57.0,52.2,29.92,NE,45,0.0,0.0,84,0.00,CLR,CLR,0.00,WeatherDisplay:10.37,2013-07-04 10:31:00,
2013-07-04 05:36:00,57.0,52.2,29.92,West,270,0.0,0.0,84,0.00,CLR,CLR,0.00,WeatherDisplay:10.37,2013-07-04 10:36:00,
2013-07-04 05:41:00,57.0,52.6,29.92,SSE,158,0.1,1.2,85,0.00,CLR,CLR,0.00,WeatherDisplay:10.37,2013-07-04 10:41:00,
2013-07-04 05:46:00,57.0,52.6,29.92,ESE,112,1.8,2.3,85,0.00,CLR,CLR,0.00,WeatherDisplay:10.37,2013-07-04 10:46:00,
2013-07-04 05:52:00,57.4,52.9,29.92,SE,135,2.4,3.5,85,0.00,CLR,CLR,0.00,WeatherDisplay:10.37,2013-07-04 10:52:00,
2013-07-04 05:57:00,57.7,53.6,29.92,ESE,112,0.2,1.2,86,0.00,CLR,CLR,0.00,WeatherDisplay:10.37,2013-07-04 10:57:00,
2013-07-04 06:02:00,58.1,53.9,29.92,SSE,158,1.5,2.9,86,0.00,CLR,CLR,0.00,WeatherDisplay:10.37,2013-07-04 11:02:00,
2013-07-04 06:07:00,58.6,54.5,29.92,South,180,2.4,4.6,86,0.00,CLR,CLR,0.00,WeatherDisplay:10.37,2013-07-04 11:07:00,
2013-07-04 06:12:00,59.0,55.1,29.92,SE,135,2.4,3.5,87,0.00,CLR,CLR,0.00,WeatherDisplay:10.37,2013-07-04 11:12:00,
2013-07-04 06:17:00,59.5,55.7,29.92,South,180,1.7,2.3,87,0.00,CLR,CLR,0.00,WeatherDisplay:10.37,2013-07-04 11:17:00,
2013-07-04 06:23:00,59.9,55.7,29.92,SSE,158,2.5,3.5,86,0.00,CLR,CLR,0.00,WeatherDisplay:10.37,2013-07-04 11:23:00,
2013-07-04 06:28:00,60.3,56.1,29.92,SE,135,3.5,3.5,86,0.00,CLR,CLR,0.00,WeatherDisplay:10.37,2013-07-04 11:28:00,
2013-07-04 06:33:00,60.6,56.4,29.92,SE,135,1.7,3.5,86,0.00,CLR,CLR,0.00,WeatherDisplay:10.37,2013-07-04 11:33:00,
2013-07-04 06:39:00,61.2,56.6,29.92,SSE,158,3.4,4.6,85,0.00,CLR,CLR,0.00,WeatherDisplay:10.37,2013-07-04 11:39:00,
2013-07-04 06:44:00,61.5,57.0,29.92,South,180,1.9,3.5,85,0.00,CLR,CLR,0.00,WeatherDisplay:10.37,2013-07-04 11:44:00,
2013-07-04 06:49:00,61.7,56.8,29.92,SE,135,0.8,3.5,84,0.00,CLR,CLR,0.00,WeatherDisplay:10.37,2013-07-04 11:49:00,
2013-07-04 06:54:00,62.2,57.0,29.92,SSE,158,1.6,3.5,83,0.00,CLR,CLR,0.00,WeatherDisplay:10.37,2013-07-04 11:54:00,
2013-07-04 06:59:00,62.4,57.2,29.92,SSE,158,2.2,3.6,83,0.00,CLR,CLR,0.00,WeatherDisplay:10.37,2013-07-04 11:59:00,
2013-07-04 07:04:00,63.0,57.4,29.92,SSE,158,4.8,6.9,82,0.00,CLR,CLR,0.00,WeatherDisplay:10.37,2013-07-04 12:04:00,
2013-07-04 07:09:00,63.3,57.7,29.92,SSE,158,5.3,6.9,82,0.00,CLR,CLR,0.00,WeatherDisplay:10.37,2013-07-04 12:09:00,
2013-07-04 07:15:00,63.9,57.9,29.92,SSE,158,4.2,5.8,81,0.00,CLR,CLR,0.00,WeatherDisplay:10.37,2013-07-04 12:15:00,
2013-07-04 07:20:00,64.0,57.7,29.92,South,180,1.9,4.6,80,0.00,CLR,CLR,0.00,WeatherDisplay:10.37,2013-07-04 12:20:00,
2013-07-04 07:25:00,64.6,57.9,29.92,SE,135,3.5,4.6,79,0.00,CLR,CLR,0.00,WeatherDisplay:10.37,2013-07-04 12:25:00,
2013-07-04 07:30:00,64.8,58.1,29.92,SSE,158,4.0,5.8,79,0.00,CLR,CLR,0.00,WeatherDisplay:10.37,2013-07-04 12:30:00,
2013-07-04 07:35:00,65.1,58.4,29.92,South,180,3.9,5.8,79,0.00,CLR,CLR,0.00,WeatherDisplay:10.37,2013-07-04 12:35:00,
2013-07-04 07:40:00,65.5,58.4,29.92,SE,135,5.6,6.9,78,0.00,CLR,CLR,0.00,WeatherDisplay:10.37,2013-07-04 12:40:00,
2013-07-04 07:45:00,66.0,58.6,29.92,SSW,202,3.1,4.5,77,0.00,CLR,CLR,0.00,WeatherDisplay:10.37,2013-07-04 12:45:00,
2013-07-04 07:50:00,66.4,58.9,29.92,SSW,202,3.9,3.9,77,0.00,CLR,CLR,0.00,WeatherDisplay:10.37,2013-07-04 12:50:00,
2013-07-04 07:55:00,66.7,58.9,29.92,SE,135,3.2,5.8,76,0.00,CLR,CLR,0.00,WeatherDisplay:10.37,2013-07-04 12:55:00,
2013-07-04 08:00:00,67.1,59.3,29.92,SSE,158,2.8,3.5,76,0.00,CLR,CLR,0.00,WeatherDisplay:10.37,2013-07-04 13:00:00,
2013-07-04 08:05:00,67.6,59.8,29.92,ESE,112,2.8,3.5,76,0.00,CLR,CLR,0.00,WeatherDisplay:10.37,2013-07-04 13:05:00,
2013-07-04 08:11:00,68.2,60.0,29.92,South,180,2.9,3.5,75,0.00,CLR,CLR,0.00,WeatherDisplay:10.37,2013-07-04 13:11:00,
2013-07-04 08:16:00,68.7,60.1,29.92,SE,135,2.9,3.5,74,0.00,CLR,CLR,0.00,WeatherDisplay:10.37,2013-07-04 13:16:00,
2013-07-04 08:21:00,69.4,60.8,29.92,South,180,2.2,4.6,74,0.00,CLR,CLR,0.00,WeatherDisplay:10.37,2013-07-04 13:21:00,
2013-07-04 08:26:00,69.8,60.8,29.92,SSE,158,6.0,6.9,73,0.00,CLR,CLR,0.00,WeatherDisplay:10.37,2013-07-04 13:26:00,
2013-07-04 08:31:00,70.5,61.4,29.92,South,180,0.8,3.5,73,0.00,CLR,CLR,0.00,WeatherDisplay:10.37,2013-07-04 13:31:00,
2013-07-04 08:37:00,71.2,61.7,29.92,South,180,5.3,8.1,72,0.00,CLR,CLR,0.00,WeatherDisplay:10.37,2013-07-04 13:37:00,
2013-07-04 08:42:00,71.8,61.9,29.92,SSE,158,2.9,6.9,71,0.00,CLR,CLR,0.00,WeatherDisplay:10.37,2013-07-04 13:42:00,
2013-07-04 08:47:00,72.3,62.4,29.92,SSE,158,5.4,5.8,71,0.00,CLR,CLR,0.00,WeatherDisplay:10.37,2013-07-04 13:47:00,
2013-07-04 08:52:00,73.0,62.7,29.92,South,180,2.2,4.6,70,0.00,CLR,CLR,0.00,WeatherDisplay:10.37,2013-07-04 13:52:00,
2013-07-04 08:57:00,73.6,63.2,29.92,SE,135,7.3,9.2,70,0.00,CLR,CLR,0.00,WeatherDisplay:10.37,2013-07-04 13:57:00,
2013-07-04 09:02:00,74.1,62.9,29.91,SSE,158,6.4,9.2,68,0.00,CLR,CLR,0.00,WeatherDisplay:10.37,2013-07-04 14:02:00,
2013-07-04 09:07:00,74.8,63.1,29.91,SSW,202,2.4,3.5,67,0.00,CLR,CLR,0.00,WeatherDisplay:10.37,2013-07-04 14:07:00,
2013-07-04 09:12:00,75.4,63.2,29.92,SW,225,1.1,3.5,66,0.00,CLR,CLR,0.00,WeatherDisplay:10.37,2013-07-04 14:12:00,
2013-07-04 09:18:00,75.9,63.3,29.91,South,180,3.4,6.0,65,0.00,CLR,CLR,0.00,WeatherDisplay:10.37,2013-07-04 14:18:00,
2013-07-04 09:23:00,76.5,63.4,29.91,West,270,2.6,4.6,64,0.00,CLR,CLR,0.00,WeatherDisplay:10.37,2013-07-04 14:23:00,
2013-07-04 09:28:00,77.2,63.6,29.91,WSW,248,2.2,3.8,63,0.00,CLR,CLR,0.00,WeatherDisplay:10.37,2013-07-04 14:28:00,
2013-07-04 09:33:00,77.7,64.1,29.91,WSW,248,2.2,5.4,63,0.00,CLR,CLR,0.00,WeatherDisplay:10.37,2013-07-04 14:33:00,
2013-07-04 09:38:00,78.3,63.7,29.91,South,180,6.5,8.1,61,0.00,CLR,CLR,0.00,WeatherDisplay:10.37,2013-07-04 14:38:00,
2013-07-04 09:44:00,78.6,64.0,29.90,South,180,5.2,6.3,61,0.00,CLR,CLR,0.00,WeatherDisplay:10.37,2013-07-04 14:44:00,
2013-07-04 09:49:00,79.2,64.1,29.90,SE,135,2.2,4.0,60,0.00,CLR,CLR,0.00,WeatherDisplay:10.37,2013-07-04 14:49:00,
2013-07-04 09:54:00,79.5,63.9,29.90,South,180,3.8,4.6,59,0.00,CLR,CLR,0.00,WeatherDisplay:10.37,2013-07-04 14:54:00,
2013-07-04 09:59:00,79.9,63.8,29.90,SSE,158,5.5,8.1,58,0.00,CLR,CLR,0.00,WeatherDisplay:10.37,2013-07-04 14:59:00,
2013-07-04 10:04:00,80.4,64.3,29.90,SE,135,4.2,5.8,58,0.00,CLR,CLR,0.00,WeatherDisplay:10.37,2013-07-04 15:04:00,
2013-07-04 10:10:00,81.0,64.8,29.89,SSE,158,1.9,5.8,58,0.00,CLR,CLR,0.00,WeatherDisplay:10.37,2013-07-04 15:10:00,
2013-07-04 10:15:00,81.3,64.6,29.90,South,180,3.6,8.5,57,0.00,CLR,CLR,0.00,WeatherDisplay:10.37,2013-07-04 15:15:00,
2013-07-04 10:20:00,81.7,64.5,29.89,SSE,158,2.7,4.6,56,0.00,CLR,CLR,0.00,WeatherDisplay:10.37,2013-07-04 15:20:00,
2013-07-04 10:25:00,82.0,64.8,29.89,SSW,202,6.3,10.4,56,0.00,CLR,CLR,0.00,WeatherDisplay:10.37,2013-07-04 15:25:00,
2013-07-04 10:30:00,82.2,64.4,29.89,South,180,6.8,11.5,55,0.00,CLR,CLR,0.00,WeatherDisplay:10.37,2013-07-04 15:30:00,
2013-07-04 10:35:00,82.6,64.3,29.89,South,180,3.9,6.9,54,0.00,CLR,CLR,0.00,WeatherDisplay:10.37,2013-07-04 15:35:00,
2013-07-04 10:40:00,82.9,64.6,29.89,South,180,9.4,11.5,54,0.00,CLR,CLR,0.00,WeatherDisplay:10.37,2013-07-04 15:40:00,
2013-07-04 10:46:00,83.1,64.2,29.89,SE,135,2.8,8.1,53,0.00,CLR,CLR,0.00,WeatherDisplay:10.37,2013-07-04 15:46:00,
2013-07-04 10:51:00,83.5,64.0,29.89,South,180,8.4,10.4,52,0.00,CLR,CLR,0.00,WeatherDisplay:10.37,2013-07-04 15:51:00,
2013-07-04 10:56:00,83.8,64.9,29.89,SSE,158,5.2,5.8,53,0.00,CLR,CLR,0.00,WeatherDisplay:10.37,2013-07-04 15:56:00,
2013-07-04 11:01:00,84.4,64.8,29.89,South,180,5.8,6.9,52,0.00,CLR,CLR,0.00,WeatherDisplay:10.37,2013-07-04 16:01:00,
2013-07-04 11:06:00,84.7,65.2,29.89,SE,135,8.3,10.5,52,0.00,CLR,CLR,0.00,WeatherDisplay:10.37,2013-07-04 16:06:00,
2013-07-04 11:11:00,85.1,64.9,29.89,SSE,158,2.7,6.9,51,0.00,CLR,CLR,0.00,WeatherDisplay:10.37,2013-07-04 16:11:00,
2013-07-04 11:17:00,85.3,64.0,29.89,ESE,112,6.4,11.5,49,0.00,CLR,CLR,0.00,WeatherDisplay:10.37,2013-07-04 16:17:00,
2013-07-04 11:22:00,85.3,64.5,29.89,South,180,8.0,10.4,50,0.00,CLR,CLR,0.00,WeatherDisplay:10.37,2013-07-04 16:22:00,
2013-07-04 11:27:00,85.6,65.4,29.89,SSE,158,4.0,6.9,51,0.00,CLR,CLR,0.00,WeatherDisplay:10.37,2013-07-04 16:27:00,
2013-07-04 11:32:00,86.0,65.2,29.89,SSE,158,3.3,8.1,50,0.00,CLR,CLR,0.00,WeatherDisplay:10.37,2013-07-04 16:32:00,
2013-07-04 11:37:00,86.5,65.1,29.89,South,180,5.8,12.7,49,0.00,CLR,CLR,0.00,WeatherDisplay:10.37,2013-07-04 16:37:00,
2013-07-04 11:42:00,86.5,64.5,29.88,SSE,158,12.0,12.0,48,0.00,CLR,CLR,0.00,WeatherDisplay:10.37,2013-07-04 16:42:00,
2013-07-04 11:48:00,86.7,64.7,29.88,South,180,8.6,11.5,48,0.00,CLR,CLR,0.00,WeatherDisplay:10.37,2013-07-04 16:48:00,
2013-07-04 11:53:00,87.1,65.0,29.88,South,180,6.1,8.1,48,0.00,CLR,CLR,0.00,WeatherDisplay:10.37,2013-07-04 16:53:00,
2013-07-04 11:58:00,87.3,65.2,29.88,SSW,202,7.2,9.2,48,0.00,CLR,CLR,0.00,WeatherDisplay:10.37,2013-07-04 16:58:00,
2013-07-04 12:03:00,87.4,64.7,29.88,SSE,158,9.8,15.9,47,0.00,CLR,CLR,0.00,WeatherDisplay:10.37,2013-07-04 17:03:00,
2013-07-04 12:08:00,87.4,64.7,29.88,South,180,5.5,10.4,47,0.00,CLR,CLR,0.00,WeatherDisplay:10.37,2013-07-04 17:08:00,
2013-07-04 12:13:00,87.6,64.9,29.88,South,180,11.6,16.1,47,0.00,CLR,CLR,0.00,WeatherDisplay:10.37,2013-07-04 17:13:00,
2013-07-04 12:18:00,88.0,65.2,29.88,South,180,5.3,8.1,47,0.00,CLR,CLR,0.00,WeatherDisplay:10.37,2013-07-04 17:18:00,
2013-07-04 12:24:00,88.3,64.9,29.88,SSE,158,5.8,10.4,46,0.00,CLR,CLR,0.00,WeatherDisplay:10.37,2013-07-04 17:24:00,
2013-07-04 12:29:00,88.3,64.3,29.88,SW,225,12.5,16.1,45,0.00,CLR,CLR,0.00,WeatherDisplay:10.37,2013-07-04 17:29:00,
2013-07-04 12:34:00,88.5,64.5,29.88,SSE,158,9.3,9.3,45,0.00,CLR,CLR,0.00,WeatherDisplay:10.37,2013-07-04 17:34:00,
2013-07-04 12:39:00,88.7,64.6,29.88,SE,135,10.0,13.8,45,0.00,CLR,CLR,0.00,WeatherDisplay:10.37,2013-07-04 17:39:00,
2013-07-04 12:44:00,89.1,64.3,29.88,SE,135,7.4,11.5,44,0.00,CLR,CLR,0.00,WeatherDisplay:10.37,2013-07-04 17:44:00,
2013-07-04 12:50:00,88.9,64.1,29.88,South,180,13.4,19.6,44,0.00,CLR,CLR,0.00,WeatherDisplay:10.37,2013-07-04 17:50:00,
2013-07-04 12:55:00,88.9,64.8,29.88,SSE,158,14.1,16.1,45,0.00,CLR,CLR,0.00,WeatherDisplay:10.37,2013-07-04 17:55:00,
2013-07-04 13:00:00,88.9,63.5,29.88,South,180,6.8,11.5,43,0.00,CLR,CLR,0.00,WeatherDisplay:10.37,2013-07-04 18:00:00,
2013-07-04 13:05:00,88.7,64.0,29.87,SSE,158,13.2,15.0,44,0.00,CLR,CLR,0.00,WeatherDisplay:10.37,2013-07-04 18:05:00,
2013-07-04 13:10:00,88.7,64.0,29.87,SSW,202,8.3,10.4,44,0.00,CLR,CLR,0.00,WeatherDisplay:10.37,2013-07-04 18:10:00,
2013-07-04 13:15:00,88.5,63.2,29.87,SE,135,8.6,12.7,43,0.00,CLR,CLR,0.00,WeatherDisplay:10.37,2013-07-04 18:15:00,
2013-07-04 13:20:00,88.5,62.5,29.87,SSE,158,10.5,20.6,42,0.00,CLR,CLR,0.00,WeatherDisplay:10.37,2013-07-04 18:20:00,
2013-07-04 13:26:00,88.5,61.8,29.87,SSW,202,9.3,18.4,41,0.00,CLR,CLR,0.00,WeatherDisplay:10.37,2013-07-04 18:26:00,
2013-07-04 13:31:00,88.5,62.5,29.87,SSW,202,6.0,9.2,42,0.00,CLR,CLR,0.00,WeatherDisplay:10.37,2013-07-04 18:31:00,
2013-07-04 13:36:00,88.7,62.7,29.86,South,180,10.8,16.1,42,0.00,CLR,CLR,0.00,WeatherDisplay:10.37,2013-07-04 18:36:00,
2013-07-04 13:41:00,88.7,62.0,29.87,SSE,158,13.2,20.7,41,0.00,CLR,CLR,0.00,WeatherDisplay:10.37,2013-07-04 18:41:00,
2013-07-04 13:46:00,88.9,62.1,29.86,ESE,112,8.6,12.7,41,0.00,CLR,CLR,0.00,WeatherDisplay:10.37,2013-07-04 18:46:00,
2013-07-04 13:51:00,89.2,62.5,29.86,SE,135,7.5,11.5,41,0.00,CLR,CLR,0.00,WeatherDisplay:10.37,2013-07-04 18:51:00,
2013-07-04 13:56:00,89.4,61.9,29.86,South,180,9.6,10.4,40,0.00,CLR,CLR,0.00,WeatherDisplay:10.37,2013-07-04 18:56:00,
2013-07-04 14:02:00,89.4,61.9,29.86,SSE,158,8.2,19.6,40,0.00,CLR,CLR,0.00,WeatherDisplay:10.37,2013-07-04 19:02:00,
2013-07-04 14:07:00,89.4,61.9,29.86,South,180,13.4,20.7,40,0.00,CLR,CLR,0.00,WeatherDisplay:10.37,2013-07-04 19:07:00,
2013-07-04 14:12:00,89.8,61.5,29.86,SSW,202,8.6,12.7,39,0.00,CLR,CLR,0.00,WeatherDisplay:10.37,2013-07-04 19:12:00,
2013-07-04 14:17:00,89.8,60.8,29.85,South,180,11.5,19.7,38,0.00,CLR,CLR,0.00,WeatherDisplay:10.37,2013-07-04 19:17:00,
2013-07-04 14:22:00,89.6,61.4,29.85,South,180,8.4,11.5,39,0.00,CLR,CLR,0.00,WeatherDisplay:10.37,2013-07-04 19:22:00,
2013-07-04 14:27:00,89.8,61.5,29.85,South,180,15.9,19.6,39,0.00,CLR,CLR,0.00,WeatherDisplay:10.37,2013-07-04 19:27:00,
2013-07-04 14:32:00,90.0,61.7,29.84,South,180,13.8,13.8,39,0.00,CLR,CLR,0.00,WeatherDisplay:10.37,2013-07-04 19:32:00,
2013-07-04 14:38:00,90.3,61.3,29.84,SSE,158,16.2,21.9,38,0.00,CLR,CLR,0.00,WeatherDisplay:10.37,2013-07-04 19:38:00,
2013-07-04 14:43:00,90.7,61.6,29.85,SSE,158,10.9,15.0,38,0.00,CLR,CLR,0.00,WeatherDisplay:10.37,2013-07-04 19:43:00,
2013-07-04 14:48:00,91.2,60.5,29.85,South,180,12.4,16.1,36,0.00,CLR,CLR,0.00,WeatherDisplay:10.37,2013-07-04 19:48:00,
2013-07-04 14:53:00,91.2,62.1,29.84,South,180,8.1,17.3,38,0.00,CLR,CLR,0.00,WeatherDisplay:10.37,2013-07-04 19:53:00,
2013-07-04 14:58:00,91.2,60.5,29.84,ESE,112,13.3,20.7,36,0.00,CLR,CLR,0.00,WeatherDisplay:10.37,2013-07-04 19:58:00,
2013-07-04 15:03:00,91.2,60.5,29.84,SE,135,9.2,12.7,36,0.00,CLR,CLR,0.00,WeatherDisplay:10.37,2013-07-04 20:03:00,
2013-07-04 15:09:00,91.6,60.9,29.84,South,180,17.8,19.6,36,0.00,CLR,CLR,0.00,WeatherDisplay:10.37,2013-07-04 20:09:00,
2013-07-04 15:14:00,91.6,60.1,29.84,South,180,7.7,11.5,35,0.00,CLR,CLR,0.00,WeatherDisplay:10.37,2013-07-04 20:14:00,
2013-07-04 15:19:00,91.4,59.9,29.84,SSE,158,15.5,23.0,35,0.00,CLR,CLR,0.00,WeatherDisplay:10.37,2013-07-04 20:19:00,
2013-07-04 15:24:00,91.2,60.5,29.84,SSE,158,15.8,19.6,36,0.00,CLR,CLR,0.00,WeatherDisplay:10.37,2013-07-04 20:24:00,
2013-07-04 15:30:00,91.2,60.5,29.84,SSE,158,7.0,8.1,36,0.00,CLR,CLR,0.00,WeatherDisplay:10.37,2013-07-04 20:30:00,
2013-07-04 15:35:00,91.6,60.1,29.84,SSE,158,9.1,12.7,35,0.00,CLR,CLR,0.00,WeatherDisplay:10.37,2013-07-04 20:35:00,
2013-07-04 15:40:00,91.8,60.2,29.84,SSW,202,11.2,18.4,35,0.00,CLR,CLR,0.00,WeatherDisplay:10.37,2013-07-04 20:40:00,
2013-07-04 15:45:00,91.9,60.4,29.84,South,180,7.6,22.6,35,0.00,CLR,CLR,0.00,WeatherDisplay:10.37,2013-07-04 20:45:00,
2013-07-04 15:50:00,92.1,59.7,29.84,SE,135,9.5,19.6,34,0.00,CLR,CLR,0.00,WeatherDisplay:10.37,2013-07-04 20:50:00,
2013-07-04 15:56:00,92.5,60.0,29.84,SSW,202,9.5,16.1,34,0.00,CLR,CLR,0.00,WeatherDisplay:10.37,2013-07-04 20:56:00,
2013-07-04 16:01:00,92.3,59.0,29.84,SE,135,10.5,11.5,33,0.00,CLR,CLR,0.00,WeatherDisplay:10.37,2013-07-04 21:01:00,
2013-07-04 16:06:00,91.9,58.7,29.84,South,180,5.8,9.6,33,0.00,CLR,CLR,0.00,WeatherDisplay:10.37,2013-07-04 21:06:00,
2013-07-04 16:11:00,91.9,58.7,29.84,SSE,158,18.5,23.0,33,0.00,CLR,CLR,0.00,WeatherDisplay:10.37,2013-07-04 21:11:00,
2013-07-04 16:16:00,92.3,59.0,29.84,SSW,202,7.8,21.9,33,0.00,CLR,CLR,0.00,WeatherDisplay:10.37,2013-07-04 21:16:00,
2013-07-04 16:21:00,92.8,58.6,29.84,ESE,112,15.3,19.6,32,0.00,CLR,CLR,0.00,WeatherDisplay:10.37,2013-07-04 21:21:00,
2013-07-04 16:27:00,92.8,59.5,29.84,SSE,158,9.7,17.3,33,0.00,CLR,CLR,0.00,WeatherDisplay:10.37,2013-07-04 21:27:00,
2013-07-04 16:32:00,93.0,59.7,29.84,South,180,18.1,23.0,33,0.00,CLR,CLR,0.00,WeatherDisplay:10.37,2013-07-04 21:32:00,
2013-07-04 16:37:00,93.4,60.0,29.84,East,90,15.3,16.1,33,0.00,CLR,CLR,0.00,WeatherDisplay:10.37,2013-07-04 21:37:00,
2013-07-04 16:42:00,93.4,59.1,29.84,SSE,158,5.8,18.4,32,0.00,CLR,CLR,0.00,WeatherDisplay:10.37,2013-07-04 21:42:00,
2013-07-04 16:47:00,93.0,58.8,29.84,SSW,202,7.4,10.4,32,0.00,CLR,CLR,0.00,WeatherDisplay:10.37,2013-07-04 21:47:00,
2013-07-04 16:52:00,92.8,58.6,29.84,South,180,10.1,15.0,32,0.00,CLR,CLR,0.00,WeatherDisplay:10.37,2013-07-04 21:52:00,
2013-07-04 16:58:00,92.8,58.6,29.84,South,180,11.4,19.6,32,0.00,CLR,CLR,0.00,WeatherDisplay:10.37,2013-07-04 21:58:00,
2013-07-04 17:03:00,92.7,59.4,29.84,South,180,6.6,9.2,33,0.00,CLR,CLR,0.00,WeatherDisplay:10.37,2013-07-04 22:03:00,
2013-07-04 17:08:00,93.0,58.8,29.84,SSE,158,13.4,19.7,32,0.00,CLR,CLR,0.00,WeatherDisplay:10.37,2013-07-04 22:08:00,
2013-07-04 17:13:00,93.2,59.0,29.84,SSE,158,12.6,19.6,32,0.00,CLR,CLR,0.00,WeatherDisplay:10.37,2013-07-04 22:13:00,
2013-07-04 17:18:00,93.4,59.1,29.83,SSE,158,14.4,14.4,32,0.00,CLR,CLR,0.00,WeatherDisplay:10.37,2013-07-04 22:18:00,
2013-07-04 17:23:00,93.9,59.6,29.83,SE,135,8.1,10.4,32,0.00,CLR,CLR,0.00,WeatherDisplay:10.37,2013-07-04 22:23:00,
2013-07-04 17:28:00,94.5,59.2,29.84,South,180,13.1,17.3,31,0.00,CLR,CLR,0.00,WeatherDisplay:10.37,2013-07-04 22:28:00,
2013-07-04 17:33:00,94.8,59.5,29.83,ENE,68,15.0,19.6,31,0.00,CLR,CLR,0.00,WeatherDisplay:10.37,2013-07-04 22:33:00,
2013-07-04 17:39:00,95.2,58.9,29.83,SSE,158,8.9,18.4,30,0.00,CLR,CLR,0.00,WeatherDisplay:10.37,2013-07-04 22:39:00,
2013-07-04 17:44:00,95.2,58.9,29.83,South,180,11.4,17.3,30,0.00,CLR,CLR,0.00,WeatherDisplay:10.37,2013-07-04 22:44:00,
2013-07-04 17:49:00,95.5,59.2,29.82,SE,135,14.9,21.9,30,0.00,CLR,CLR,0.00,WeatherDisplay:10.37,2013-07-04 22:49:00,
2013-07-04 17:54:00,95.7,58.4,29.82,SSE,158,17.2,18.4,29,0.00,CLR,CLR,0.00,WeatherDisplay:10.37,2013-07-04 22:54:00,
2013-07-04 17:59:00,95.7,58.4,29.82,South,180,11.4,21.9,29,0.00,CLR,CLR,0.00,WeatherDisplay:10.37,2013-07-04 22:59:00,
2013-07-04 18:04:00,95.5,59.2,29.82,SSE,158,11.0,24.2,30,0.00,CLR,CLR,0.00,WeatherDisplay:10.37,2013-07-04 23:04:00,
2013-07-04 18:09:00,95.2,58.9,29.82,SSE,158,6.5,8.1,30,0.00,CLR,CLR,0.00,WeatherDisplay:10.37,2013-07-04 23:09:00,
2013-07-04 18:14:00,95.0,58.7,29.82,ESE,112,5.2,5.8,30,0.00,CLR,CLR,0.00,WeatherDisplay:10.37,2013-07-04 23:14:00,
2013-07-04 18:20:00,95.5,59.2,29.82,SSE,158,8.7,11.5,30,0.00,CLR,CLR,0.00,WeatherDisplay:10.37,2013-07-04 23:20:00,
2013-07-04 18:25:00,96.1,59.6,29.82,South,180,7.2,11.5,30,0.00,CLR,CLR,0.00,WeatherDisplay:10.37,2013-07-04 23:25:00,
2013-07-04 18:30:00,96.6,60.1,29.82,SSW,202,9.1,10.4,30,0.00,CLR,CLR,0.00,WeatherDisplay:10.37,2013-07-04 23:30:00,
2013-07-04 18:35:00,96.6,60.1,29.82,WSW,248,8.1,13.8,30,0.00,CLR,CLR,0.00,WeatherDisplay:10.37,2013-07-04 23:35:00,
2013-07-04 18:40:00,96.4,59.0,29.82,SSW,202,11.9,19.6,29,0.00,CLR,CLR,0.00,WeatherDisplay:10.37,2013-07-04 23:40:00,
2013-07-04 18:45:00,96.4,59.9,29.82,SSE,158,8.4,10.4,30,0.00,CLR,CLR,0.00,WeatherDisplay:10.37,2013-07-04 23:45:00,
2013-07-04 18:50:00,96.1,58.7,29.81,South,180,7.6,10.4,29,0.00,CLR,CLR,0.00,WeatherDisplay:10.37,2013-07-04 23:50:00,
2013-07-04 18:55:00,94.8,58.6,29.82,SE,135,7.4,12.7,30,0.00,CLR,CLR,0.00,WeatherDisplay:10.37,2013-07-04 23:55:00,
2013-07-04 19:01:00,93.0,58.8,29.82,SSE,158,5.7,10.4,32,0.00,CLR,CLR,0.00,WeatherDisplay:10.37,2013-07-05 00:01:00,
2013-07-04 19:06:00,92.8,58.6,29.82,South,180,10.1,11.5,32,0.00,CLR,CLR,0.00,WeatherDisplay:10.37,2013-07-05 00:06:00,
2013-07-04 19:11:00,92.1,58.9,29.82,ESE,112,6.8,9.2,33,0.00,CLR,CLR,0.00,WeatherDisplay:10.37,2013-07-05 00:11:00,
2013-07-04 19:16:00,93.0,60.5,29.82,South,180,4.5,9.2,34,0.00,CLR,CLR,0.00,WeatherDisplay:10.37,2013-07-05 00:16:00,
2013-07-04 19:21:00,93.9,60.4,29.81,SSE,158,6.5,7.2,33,0.00,CLR,CLR,0.00,WeatherDisplay:10.37,2013-07-05 00:21:00,
2013-07-04 19:27:00,94.8,61.2,29.81,South,180,5.8,10.1,33,0.00,CLR,CLR,0.00,WeatherDisplay:10.37,2013-07-05 00:27:00,
2013-07-04 19:32:00,95.5,61.0,29.81,SSE,158,5.3,10.4,32,0.00,CLR,CLR,0.00,WeatherDisplay:10.37,2013-07-05 00:32:00,
2013-07-04 19:37:00,96.4,61.8,29.82,South,180,3.6,6.9,32,0.00,CLR,CLR,0.00,WeatherDisplay:10.37,2013-07-05 00:37:00,
2013-07-04 19:42:00,97.0,61.3,29.82,SSE,158,7.0,11.5,31,0.00,CLR,CLR,0.00,WeatherDisplay:10.37,2013-07-05 00:42:00,
2013-07-04 19:47:00,96.4,60.9,29.82,South,180,7.3,8.1,31,0.00,CLR,CLR,0.00,WeatherDisplay:10.37,2013-07-05 00:47:00,
2013-07-04 19:53:00,95.5,61.0,29.82,SSW,202,8.1,17.3,32,0.00,CLR,CLR,0.00,WeatherDisplay:10.37,2013-07-05 00:53:00,
2013-07-04 19:58:00,94.8,60.4,29.82,SE,135,3.5,4.6,32,0.00,CLR,CLR,0.00,WeatherDisplay:10.37,2013-07-05 00:58:00,
2013-07-04 20:03:00,93.9,60.4,29.82,SE,135,4.6,5.8,33,0.00,CLR,CLR,0.00,WeatherDisplay:10.37,2013-07-05 01:03:00,
2013-07-04 20:08:00,92.3,59.9,29.82,SSE,158,5.5,9.2,34,0.00,CLR,CLR,0.00,WeatherDisplay:10.37,2013-07-05 01:08:00,
2013-07-04 20:13:00,91.2,58.9,29.82,South,180,6.0,8.1,34,0.00,CLR,CLR,0.00,WeatherDisplay:10.37,2013-07-05 01:13:00,
2013-07-04 20:18:00,90.3,59.0,29.81,SE,135,7.7,8.1,35,0.00,CLR,CLR,0.00,WeatherDisplay:10.37,2013-07-05 01:18:00,
2013-07-04 20:23:00,89.4,59.0,29.81,ESE,112,4.2,5.8,36,0.00,CLR,CLR,0.00,WeatherDisplay:10.37,2013-07-05 01:23:00,
2013-07-04 20:28:00,88.9,58.5,29.81,ESE,112,5.0,6.9,36,0.00,CLR,CLR,0.00,WeatherDisplay:10.37,2013-07-05 01:28:00,
2013-07-04 20:33:00,87.6,58.1,29.82,SSW,202,4.8,6.9,37,0.00,CLR,CLR,0.00,WeatherDisplay:10.37,2013-07-05 01:33:00,
2013-07-04 20:38:00,86.5,57.9,29.82,South,180,6.1,6.9,38,0.00,CLR,CLR,0.00,WeatherDisplay:10.37,2013-07-05 01:38:00,
2013-07-04 20:43:00,85.3,57.5,29.82,SE,135,5.8,8.1,39,0.00,CLR,CLR,0.00,WeatherDisplay:10.37,2013-07-05 01:43:00,
2013-07-04 20:48:00,84.2,57.3,29.82,South,180,4.5,4.6,40,0.00,CLR,CLR,0.00,WeatherDisplay:10.37,2013-07-05 01:48:00,
2013-07-04 20:53:00,83.1,57.0,29.82,SSE,158,3.8,6.3,41,0.00,CLR,CLR,0.00,WeatherDisplay:10.37,2013-07-05 01:53:00,
2013-07-04 20:59:00,82.6,57.2,29.82,South,180,5.2,10.4,42,0.00,CLR,CLR,0.00,WeatherDisplay:10.37,2013-07-05 01:59:00,
2013-07-04 21:04:00,81.7,56.4,29.82,South,180,5.3,7.2,42,0.00,CLR,CLR,0.00,WeatherDisplay:10.37,2013-07-05 02:04:00,
2013-07-04 21:09:00,81.0,56.4,29.82,South,180,3.1,4.6,43,0.00,CLR,CLR,0.00,WeatherDisplay:10.37,2013-07-05 02:09:00,
2013-07-04 21:14:00,80.4,56.5,29.82,SSE,158,3.3,5.8,44,0.00,CLR,CLR,0.00,WeatherDisplay:10.37,2013-07-05 02:14:00,
2013-07-04 21:19:00,79.9,56.0,29.82,SSE,158,4.0,11.5,44,0.00,CLR,CLR,0.00,WeatherDisplay:10.37,2013-07-05 02:19:00,
2013-07-04 21:24:00,79.3,56.8,29.82,SE,135,4.2,4.6,46,0.00,CLR,CLR,0.00,WeatherDisplay:10.37,2013-07-05 02:24:00,
2013-07-04 21:30:00,79.2,56.0,29.82,SE,135,5.8,6.9,45,0.00,CLR,CLR,0.00,WeatherDisplay:10.37,2013-07-05 02:30:00,
2013-07-04 21:35:00,78.6,56.7,29.82,SE,135,4.8,6.9,47,0.00,CLR,CLR,0.00,WeatherDisplay:10.37,2013-07-05 02:35:00,
2013-07-04 21:40:00,78.1,56.2,29.82,SE,135,1.8,6.9,47,0.00,CLR,CLR,0.00,WeatherDisplay:10.37,2013-07-05 02:40:00,
2013-07-04 21:45:00,77.9,56.0,29.82,East,90,3.7,3.7,47,0.00,CLR,CLR,0.00,WeatherDisplay:10.37,2013-07-05 02:45:00,
2013-07-04 21:51:00,77.5,55.7,29.82,SE,135,3.3,6.9,47,0.00,CLR,CLR,0.00,WeatherDisplay:10.37,2013-07-05 02:51:00,
2013-07-04 21:56:00,77.2,56.0,29.82,SE,135,5.2,5.8,48,0.00,CLR,CLR,0.00,WeatherDisplay:10.37,2013-07-05 02:56:00,
2013-07-04 22:01:00,76.8,55.6,29.82,South,180,4.2,5.8,48,0.00,CLR,CLR,0.00,WeatherDisplay:10.37,2013-07-05 03:01:00,
2013-07-04 22:06:00,76.8,56.2,29.82,SSE,158,4.4,5.8,49,0.00,CLR,CLR,0.00,WeatherDisplay:10.37,2013-07-05 03:06:00,
2013-07-04 22:11:00,76.5,55.9,29.83,South,180,4.2,5.8,49,0.00,CLR,CLR,0.00,WeatherDisplay:10.37,2013-07-05 03:11:00,
2013-07-04 22:16:00,76.3,55.7,29.83,SE,135,4.0,6.9,49,0.00,CLR,CLR,0.00,WeatherDisplay:10.37,2013-07-05 03:16:00,
2013-07-04 22:21:00,75.9,55.9,29.84,SSE,158,4.4,7.8,50,0.00,CLR,CLR,0.00,WeatherDisplay:10.37,2013-07-05 03:21:00,
2013-07-04 22:27:00,75.7,55.8,29.83,SSE,158,3.0,5.8,50,0.00,CLR,CLR,0.00,WeatherDisplay:10.37,2013-07-05 03:27:00,
2013-07-04 22:32:00,75.6,56.2,29.83,SE,135,3.8,5.8,51,0.00,CLR,CLR,0.00,WeatherDisplay:10.37,2013-07-05 03:32:00,
2013-07-04 22:37:00,75.4,56.0,29.83,SSE,158,2.0,6.9,51,0.00,CLR,CLR,0.00,WeatherDisplay:10.37,2013-07-05 03:37:00,
2013-07-04 22:42:00,75.0,55.7,29.83,SE,135,3.7,4.6,51,0.00,CLR,CLR,0.00,WeatherDisplay:10.37,2013-07-05 03:42:00,
2013-07-04 22:47:00,75.0,56.2,29.84,South,180,5.7,6.9,52,0.00,CLR,CLR,0.00,WeatherDisplay:10.37,2013-07-05 03:47:00,
2013-07-04 22:53:00,74.8,56.0,29.83,SSE,158,4.9,6.9,52,0.00,CLR,CLR,0.00,WeatherDisplay:10.37,2013-07-05 03:53:00,
2013-07-04 22:58:00,74.8,56.6,29.83,SSE,158,4.0,6.0,53,0.00,CLR,CLR,0.00,WeatherDisplay:10.37,2013-07-05 03:58:00,
2013-07-04 23:01:00,74.8,56.6,29.83,SSW,202,4.1,8.1,53,0.00,CLR,CLR,0.00,WeatherDisplay:10.37,2013-07-05 04:01:00,
2013-07-04 23:02:00,74.8,56.6,29.83,SSE,158,6.3,6.3,53,0.00,CLR,CLR,0.00,WeatherDisplay:10.37,2013-07-05 04:02:00,
2013-07-04 23:06:00,74.7,56.4,29.84,SSE,158,5.1,6.9,53,0.00,CLR,CLR,0.00,WeatherDisplay:10.37,2013-07-05 04:06:00,
2013-07-04 23:12:00,74.5,56.2,29.84,SE,135,4.1,8.1,53,0.00,CLR,CLR,0.00,WeatherDisplay:10.37,2013-07-05 04:12:00,
2013-07-04 23:17:00,74.5,56.2,29.84,SSE,158,3.8,4.6,53,0.00,CLR,CLR,0.00,WeatherDisplay:10.37,2013-07-05 04:17:00,
2013-07-04 23:22:00,74.3,56.6,29.84,SE,135,4.7,8.1,54,0.00,CLR,CLR,0.00,WeatherDisplay:10.37,2013-07-05 04:22:00,
2013-07-04 23:27:00,74.1,56.4,29.84,ESE,112,1.4,3.5,54,0.00,CLR,CLR,0.00,WeatherDisplay:10.37,2013-07-05 04:27:00,
2013-07-04 23:32:00,73.9,56.2,29.84,SSE,158,5.2,5.8,54,0.00,CLR,CLR,0.00,WeatherDisplay:10.37,2013-07-05 04:32:00,
2013-07-04 23:38:00,73.8,56.6,29.84,SE,135,3.8,4.6,55,0.00,CLR,CLR,0.00,WeatherDisplay:10.37,2013-07-05 04:38:00,
2013-07-04 23:43:00,73.6,56.4,29.84,SE,135,3.8,5.8,55,0.00,CLR,CLR,0.00,WeatherDisplay:10.37,2013-07-05 04:43:00,
2013-07-04 23:48:00,73.4,56.2,29.84,ENE,68,4.0,5.8,55,0.00,CLR,CLR,0.00,WeatherDisplay:10.37,2013-07-05 04:48:00,
2013-07-04 23:53:00,73.2,56.6,29.84,South,180,4.4,6.9,56,0.00,CLR,CLR,0.00,WeatherDisplay:10.37,2013-07-05 04:53:00,
2013-07-04 23:58:00,73.2,56.6,29.84,SSE,158,3.8,5.8,56,0.00,CLR,CLR,0.00,WeatherDisplay:10.37,2013-07-05 04:58:00,